sensor_id;sensor_type;location;lat;lon;timestamp;temperature;humidity
32612;DHT22;19030;49.478;8.986;2023-02-01T00:01:56;5.10;99.90
32612;DHT22;19030;49.478;8.986;2023-02-01T00:03:56;5.00;99.90
32612;DHT22;19030;49.478;8.986;2023-02-01T00:05:58;5.10;99.90
32612;DHT22;19030;49.478;8.986;2023-02-01T00:07:59;5.10;99.90
32612;DHT22;19030;49.478;8.986;2023-02-01T00:10:00;5.00;99.90
32612;DHT22;19030;49.478;8.986;2023-02-01T00:12:00;5.10;99.90
32612;DHT22;19030;49.478;8.986;2023-02-01T00:14:03;5.00;99.90
32612;DHT22;19030;49.478;8.986;2023-02-01T00:16:21;5.00;99.90
32612;DHT22;19030;49.478;8.986;2023-02-01T00:18:22;5.10;99.90
32612;DHT22;19030;49.478;8.986;2023-02-01T00:20:22;5.10;99.90
32612;DHT22;19030;49.478;8.986;2023-02-01T00:22:23;5.10;99.90
32612;DHT22;19030;49.478;8.986;2023-02-01T00:24:23;5.10;99.90
32612;DHT22;19030;49.478;8.986;2023-02-01T00:28:33;5.10;99.90
32612;DHT22;19030;49.478;8.986;2023-02-01T00:30:34;5.10;99.90
32612;DHT22;19030;49.478;8.986;2023-02-01T00:32:35;5.10;99.90
32612;DHT22;19030;49.478;8.986;2023-02-01T00:34:35;5.10;99.90
32612;DHT22;19030;49.478;8.986;2023-02-01T00:36:36;5.10;99.90
32612;DHT22;19030;49.478;8.986;2023-02-01T00:38:37;5.10;99.90
32612;DHT22;19030;49.478;8.986;2023-02-01T00:40:38;5.20;99.90
32612;DHT22;19030;49.478;8.986;2023-02-01T00:42:38;5.20;99.90
32612;DHT22;19030;49.478;8.986;2023-02-01T00:44:40;5.10;99.90
32612;DHT22;19030;49.478;8.986;2023-02-01T00:46:41;5.10;99.90
32612;DHT22;19030;49.478;8.986;2023-02-01T00:48:42;5.10;99.90
32612;DHT22;19030;49.478;8.986;2023-02-01T00:50:43;5.10;99.90
32612;DHT22;19030;49.478;8.986;2023-02-01T00:52:43;5.20;99.90
32612;DHT22;19030;49.478;8.986;2023-02-01T00:54:44;5.20;99.90
32612;DHT22;19030;49.478;8.986;2023-02-01T00:56:44;5.20;99.90
32612;DHT22;19030;49.478;8.986;2023-02-01T00:58:45;5.20;99.90
32612;DHT22;19030;49.478;8.986;2023-02-01T01:00:45;5.30;99.90
32612;DHT22;19030;49.478;8.986;2023-02-01T01:02:46;5.20;99.90
32612;DHT22;19030;49.478;8.986;2023-02-01T01:04:47;5.20;99.90
32612;DHT22;19030;49.478;8.986;2023-02-01T01:06:47;5.30;99.90
32612;DHT22;19030;49.478;8.986;2023-02-01T01:08:51;5.30;99.90
32612;DHT22;19030;49.478;8.986;2023-02-01T01:10:52;5.30;99.90
32612;DHT22;19030;49.478;8.986;2023-02-01T01:12:53;5.30;99.90
32612;DHT22;19030;49.478;8.986;2023-02-01T01:14:53;5.30;99.90
32612;DHT22;19030;49.478;8.986;2023-02-01T01:16:54;5.30;99.90
32612;DHT22;19030;49.478;8.986;2023-02-01T01:18:55;5.30;99.90
32612;DHT22;19030;49.478;8.986;2023-02-01T01:20:57;5.20;99.90
32612;DHT22;19030;49.478;8.986;2023-02-01T01:22:57;5.20;99.90
32612;DHT22;19030;49.478;8.986;2023-02-01T01:24:58;5.30;99.90
32612;DHT22;19030;49.478;8.986;2023-02-01T01:26:59;5.30;99.90
32612;DHT22;19030;49.478;8.986;2023-02-01T01:29:00;5.30;99.90
32612;DHT22;19030;49.478;8.986;2023-02-01T01:31:00;5.40;99.90
32612;DHT22;19030;49.478;8.986;2023-02-01T01:33:01;5.40;99.90
32612;DHT22;19030;49.478;8.986;2023-02-01T01:35:01;5.30;99.90
32612;DHT22;19030;49.478;8.986;2023-02-01T01:37:02;5.30;99.90
32612;DHT22;19030;49.478;8.986;2023-02-01T01:39:03;5.30;99.90
32612;DHT22;19030;49.478;8.986;2023-02-01T01:41:03;5.30;99.90
32612;DHT22;19030;49.478;8.986;2023-02-01T01:43:16;5.30;99.90
32612;DHT22;19030;49.478;8.986;2023-02-01T01:47:21;5.20;99.90
32612;DHT22;19030;49.478;8.986;2023-02-01T01:49:24;5.20;99.90
32612;DHT22;19030;49.478;8.986;2023-02-01T01:51:28;5.30;99.90
32612;DHT22;19030;49.478;8.986;2023-02-01T01:53:33;5.30;99.90
32612;DHT22;19030;49.478;8.986;2023-02-01T01:55:39;5.30;99.90
32612;DHT22;19030;49.478;8.986;2023-02-01T01:57:44;5.30;99.90
32612;DHT22;19030;49.478;8.986;2023-02-01T01:59:48;5.40;99.90
32612;DHT22;19030;49.478;8.986;2023-02-01T02:01:51;5.40;99.90
32612;DHT22;19030;49.478;8.986;2023-02-01T02:03:52;5.40;99.90
32612;DHT22;19030;49.478;8.986;2023-02-01T02:05:55;5.30;99.90
32612;DHT22;19030;49.478;8.986;2023-02-01T02:07:59;5.40;99.90
32612;DHT22;19030;49.478;8.986;2023-02-01T02:10:05;5.40;99.90
32612;DHT22;19030;49.478;8.986;2023-02-01T02:12:06;5.40;99.90
32612;DHT22;19030;49.478;8.986;2023-02-01T02:14:10;5.40;99.90
32612;DHT22;19030;49.478;8.986;2023-02-01T02:21:17;5.40;99.90
32612;DHT22;19030;49.478;8.986;2023-02-01T02:25:53;5.40;99.90
32612;DHT22;19030;49.478;8.986;2023-02-01T02:31:07;5.40;99.90
32612;DHT22;19030;49.478;8.986;2023-02-01T02:33:38;5.50;99.90
32612;DHT22;19030;49.478;8.986;2023-02-01T02:38:11;5.40;99.90
32612;DHT22;19030;49.478;8.986;2023-02-01T02:43:04;5.40;99.90
32612;DHT22;19030;49.478;8.986;2023-02-01T02:45:40;5.40;99.90
32612;DHT22;19030;49.478;8.986;2023-02-01T02:48:25;5.40;99.90
32612;DHT22;19030;49.478;8.986;2023-02-01T02:51:18;5.40;99.90
32612;DHT22;19030;49.478;8.986;2023-02-01T02:53:21;5.40;99.90
32612;DHT22;19030;49.478;8.986;2023-02-01T02:55:43;5.40;99.90
32612;DHT22;19030;49.478;8.986;2023-02-01T02:57:45;5.40;99.90
32612;DHT22;19030;49.478;8.986;2023-02-01T03:00:09;5.40;99.90
32612;DHT22;19030;49.478;8.986;2023-02-01T03:02:29;5.40;99.90
32612;DHT22;19030;49.478;8.986;2023-02-01T03:04:55;5.40;99.90
32612;DHT22;19030;49.478;8.986;2023-02-01T03:09:46;5.30;99.90
32612;DHT22;19030;49.478;8.986;2023-02-01T03:11:51;5.40;99.90
32612;DHT22;19030;49.478;8.986;2023-02-01T03:14:13;5.40;99.90
32612;DHT22;19030;49.478;8.986;2023-02-01T03:20:44;5.30;99.90
32612;DHT22;19030;49.478;8.986;2023-02-01T03:22:47;5.30;99.90
32612;DHT22;19030;49.478;8.986;2023-02-01T03:24:51;5.30;99.90
32612;DHT22;19030;49.478;8.986;2023-02-01T03:26:55;5.20;99.90
32612;DHT22;19030;49.478;8.986;2023-02-01T03:29:05;5.20;99.90
32612;DHT22;19030;49.478;8.986;2023-02-01T03:31:08;5.30;99.90
32612;DHT22;19030;49.478;8.986;2023-02-01T03:33:13;5.30;99.90
32612;DHT22;19030;49.478;8.986;2023-02-01T03:37:34;5.30;99.90
32612;DHT22;19030;49.478;8.986;2023-02-01T03:41:57;5.40;99.90
32612;DHT22;19030;49.478;8.986;2023-02-01T03:44:30;5.40;99.90
32612;DHT22;19030;49.478;8.986;2023-02-01T03:46:35;5.30;99.90
32612;DHT22;19030;49.478;8.986;2023-02-01T03:48:38;5.30;99.90
32612;DHT22;19030;49.478;8.986;2023-02-01T03:50:44;5.30;99.90
32612;DHT22;19030;49.478;8.986;2023-02-01T03:53:05;5.20;99.90
32612;DHT22;19030;49.478;8.986;2023-02-01T03:55:08;5.30;99.90
32612;DHT22;19030;49.478;8.986;2023-02-01T03:57:12;5.20;99.90
32612;DHT22;19030;49.478;8.986;2023-02-01T03:59:14;5.30;99.90
32612;DHT22;19030;49.478;8.986;2023-02-01T04:01:16;5.30;99.90
32612;DHT22;19030;49.478;8.986;2023-02-01T04:03:16;5.30;99.90
32612;DHT22;19030;49.478;8.986;2023-02-01T04:05:17;5.30;99.90
32612;DHT22;19030;49.478;8.986;2023-02-01T04:07:26;5.30;99.90
32612;DHT22;19030;49.478;8.986;2023-02-01T04:09:26;5.30;99.90
32612;DHT22;19030;49.478;8.986;2023-02-01T04:11:27;5.20;99.90
32612;DHT22;19030;49.478;8.986;2023-02-01T04:13:29;5.30;99.90
32612;DHT22;19030;49.478;8.986;2023-02-01T04:15:30;5.20;99.90
32612;DHT22;19030;49.478;8.986;2023-02-01T04:17:30;5.30;99.90
32612;DHT22;19030;49.478;8.986;2023-02-01T04:19:31;5.30;99.90
32612;DHT22;19030;49.478;8.986;2023-02-01T04:21:31;5.30;99.90
32612;DHT22;19030;49.478;8.986;2023-02-01T04:23:32;5.40;99.90
32612;DHT22;19030;49.478;8.986;2023-02-01T04:25:32;5.40;99.90
32612;DHT22;19030;49.478;8.986;2023-02-01T04:27:34;5.40;99.90
32612;DHT22;19030;49.478;8.986;2023-02-01T04:29:34;5.30;99.90
32612;DHT22;19030;49.478;8.986;2023-02-01T04:31:35;5.30;99.90
32612;DHT22;19030;49.478;8.986;2023-02-01T04:33:36;5.30;99.90
32612;DHT22;19030;49.478;8.986;2023-02-01T04:35:37;5.30;99.90
32612;DHT22;19030;49.478;8.986;2023-02-01T04:37:37;5.30;99.90
32612;DHT22;19030;49.478;8.986;2023-02-01T04:39:38;5.40;99.90
32612;DHT22;19030;49.478;8.986;2023-02-01T04:41:38;5.40;99.90
32612;DHT22;19030;49.478;8.986;2023-02-01T04:43:39;5.30;99.90
32612;DHT22;19030;49.478;8.986;2023-02-01T04:45:40;5.30;99.90
32612;DHT22;19030;49.478;8.986;2023-02-01T04:47:40;5.30;99.90
32612;DHT22;19030;49.478;8.986;2023-02-01T04:49:41;5.30;99.90
32612;DHT22;19030;49.478;8.986;2023-02-01T04:51:42;5.30;99.90
32612;DHT22;19030;49.478;8.986;2023-02-01T04:53:43;5.30;99.90
32612;DHT22;19030;49.478;8.986;2023-02-01T04:55:44;5.30;99.90
32612;DHT22;19030;49.478;8.986;2023-02-01T04:57:44;5.30;99.90
32612;DHT22;19030;49.478;8.986;2023-02-01T04:59:45;5.30;99.90
32612;DHT22;19030;49.478;8.986;2023-02-01T05:01:45;5.30;99.90
32612;DHT22;19030;49.478;8.986;2023-02-01T05:03:46;5.30;99.90
32612;DHT22;19030;49.478;8.986;2023-02-01T05:05:49;5.20;99.90
32612;DHT22;19030;49.478;8.986;2023-02-01T05:07:50;5.20;99.90
32612;DHT22;19030;49.478;8.986;2023-02-01T05:09:50;5.20;99.90
32612;DHT22;19030;49.478;8.986;2023-02-01T05:11:51;5.20;99.90
32612;DHT22;19030;49.478;8.986;2023-02-01T05:14:10;5.20;99.90
32612;DHT22;19030;49.478;8.986;2023-02-01T05:16:11;5.20;99.90
32612;DHT22;19030;49.478;8.986;2023-02-01T05:18:12;5.20;99.90
32612;DHT22;19030;49.478;8.986;2023-02-01T05:20:13;5.20;99.90
32612;DHT22;19030;49.478;8.986;2023-02-01T05:22:13;5.20;99.90
32612;DHT22;19030;49.478;8.986;2023-02-01T05:24:14;5.20;99.90
32612;DHT22;19030;49.478;8.986;2023-02-01T05:26:19;5.20;99.90
32612;DHT22;19030;49.478;8.986;2023-02-01T05:28:20;5.20;99.90
32612;DHT22;19030;49.478;8.986;2023-02-01T05:30:21;5.20;99.90
32612;DHT22;19030;49.478;8.986;2023-02-01T05:32:21;5.20;99.90
32612;DHT22;19030;49.478;8.986;2023-02-01T05:34:22;5.20;99.90
32612;DHT22;19030;49.478;8.986;2023-02-01T05:36:22;5.20;99.90
32612;DHT22;19030;49.478;8.986;2023-02-01T05:38:23;5.20;99.90
32612;DHT22;19030;49.478;8.986;2023-02-01T05:40:24;5.20;99.90
32612;DHT22;19030;49.478;8.986;2023-02-01T05:42:24;5.20;99.90
32612;DHT22;19030;49.478;8.986;2023-02-01T05:44:25;5.20;99.90
32612;DHT22;19030;49.478;8.986;2023-02-01T05:46:26;5.10;99.90
32612;DHT22;19030;49.478;8.986;2023-02-01T05:48:26;5.10;99.90
32612;DHT22;19030;49.478;8.986;2023-02-01T05:50:27;5.10;99.90
32612;DHT22;19030;49.478;8.986;2023-02-01T05:52:31;5.00;99.90
32612;DHT22;19030;49.478;8.986;2023-02-01T05:54:32;5.00;99.90
32612;DHT22;19030;49.478;8.986;2023-02-01T05:56:33;5.00;99.90
32612;DHT22;19030;49.478;8.986;2023-02-01T05:58:33;4.90;99.90
32612;DHT22;19030;49.478;8.986;2023-02-01T06:00:34;5.00;99.90
32612;DHT22;19030;49.478;8.986;2023-02-01T06:02:35;5.00;99.90
32612;DHT22;19030;49.478;8.986;2023-02-01T06:04:35;4.90;99.90
32612;DHT22;19030;49.478;8.986;2023-02-01T06:06:36;4.90;99.90
32612;DHT22;19030;49.478;8.986;2023-02-01T06:08:40;4.80;99.90
32612;DHT22;19030;49.478;8.986;2023-02-01T06:10:40;4.80;99.90
32612;DHT22;19030;49.478;8.986;2023-02-01T06:12:41;4.80;99.90
32612;DHT22;19030;49.478;8.986;2023-02-01T06:14:42;4.80;99.90
32612;DHT22;19030;49.478;8.986;2023-02-01T06:16:43;4.80;99.90
32612;DHT22;19030;49.478;8.986;2023-02-01T06:18:45;4.80;99.90
32612;DHT22;19030;49.478;8.986;2023-02-01T06:20:54;4.70;99.90
32612;DHT22;19030;49.478;8.986;2023-02-01T06:22:55;4.70;99.90
32612;DHT22;19030;49.478;8.986;2023-02-01T06:24:56;4.60;99.90
32612;DHT22;19030;49.478;8.986;2023-02-01T06:26:56;4.60;99.90
32612;DHT22;19030;49.478;8.986;2023-02-01T06:28:57;4.60;99.90
32612;DHT22;19030;49.478;8.986;2023-02-01T06:30:58;4.70;99.90
32612;DHT22;19030;49.478;8.986;2023-02-01T06:33:02;4.70;99.90
32612;DHT22;19030;49.478;8.986;2023-02-01T06:35:03;4.70;99.90
32612;DHT22;19030;49.478;8.986;2023-02-01T06:37:04;4.70;99.90
32612;DHT22;19030;49.478;8.986;2023-02-01T06:39:04;4.70;99.90
32612;DHT22;19030;49.478;8.986;2023-02-01T06:41:05;4.70;99.90
32612;DHT22;19030;49.478;8.986;2023-02-01T06:43:06;4.70;99.90
32612;DHT22;19030;49.478;8.986;2023-02-01T06:45:07;4.60;99.90
32612;DHT22;19030;49.478;8.986;2023-02-01T06:47:08;4.60;99.90
32612;DHT22;19030;49.478;8.986;2023-02-01T06:49:08;4.70;99.90
32612;DHT22;19030;49.478;8.986;2023-02-01T06:51:26;4.60;99.90
32612;DHT22;19030;49.478;8.986;2023-02-01T06:53:27;4.60;99.90
32612;DHT22;19030;49.478;8.986;2023-02-01T06:55:28;4.60;99.90
32612;DHT22;19030;49.478;8.986;2023-02-01T06:57:28;4.60;99.90
32612;DHT22;19030;49.478;8.986;2023-02-01T06:59:31;4.60;99.90
32612;DHT22;19030;49.478;8.986;2023-02-01T07:01:31;4.60;99.90
32612;DHT22;19030;49.478;8.986;2023-02-01T07:03:32;4.60;99.90
32612;DHT22;19030;49.478;8.986;2023-02-01T07:05:33;4.60;99.90
32612;DHT22;19030;49.478;8.986;2023-02-01T07:07:33;4.60;99.90
32612;DHT22;19030;49.478;8.986;2023-02-01T07:09:34;4.60;99.90
32612;DHT22;19030;49.478;8.986;2023-02-01T07:11:35;4.60;99.90
32612;DHT22;19030;49.478;8.986;2023-02-01T07:13:37;4.70;99.90
32612;DHT22;19030;49.478;8.986;2023-02-01T07:15:38;4.70;99.90
32612;DHT22;19030;49.478;8.986;2023-02-01T07:17:39;4.70;99.90
32612;DHT22;19030;49.478;8.986;2023-02-01T07:19:39;4.80;99.90
32612;DHT22;19030;49.478;8.986;2023-02-01T07:21:40;4.80;99.90
32612;DHT22;19030;49.478;8.986;2023-02-01T07:23:40;4.80;99.90
32612;DHT22;19030;49.478;8.986;2023-02-01T07:25:41;4.90;99.90
32612;DHT22;19030;49.478;8.986;2023-02-01T07:27:41;4.90;99.90
32612;DHT22;19030;49.478;8.986;2023-02-01T07:29:42;5.00;99.90
32612;DHT22;19030;49.478;8.986;2023-02-01T07:31:42;5.00;99.90
32612;DHT22;19030;49.478;8.986;2023-02-01T07:33:43;5.10;99.90
32612;DHT22;19030;49.478;8.986;2023-02-01T07:35:45;5.20;99.90
32612;DHT22;19030;49.478;8.986;2023-02-01T07:37:45;5.30;99.90
32612;DHT22;19030;49.478;8.986;2023-02-01T07:39:46;5.30;99.90
32612;DHT22;19030;49.478;8.986;2023-02-01T07:41:46;5.30;99.90
32612;DHT22;19030;49.478;8.986;2023-02-01T07:43:47;5.40;99.90
32612;DHT22;19030;49.478;8.986;2023-02-01T07:45:51;5.40;99.90
32612;DHT22;19030;49.478;8.986;2023-02-01T07:47:52;5.50;99.90
32612;DHT22;19030;49.478;8.986;2023-02-01T07:49:53;5.60;99.90
32612;DHT22;19030;49.478;8.986;2023-02-01T07:51:54;5.60;99.90
32612;DHT22;19030;49.478;8.986;2023-02-01T07:53:54;5.60;99.90
32612;DHT22;19030;49.478;8.986;2023-02-01T07:55:55;5.60;99.90
32612;DHT22;19030;49.478;8.986;2023-02-01T07:57:57;5.60;99.90
32612;DHT22;19030;49.478;8.986;2023-02-01T07:59:58;5.60;99.90
32612;DHT22;19030;49.478;8.986;2023-02-01T08:02:17;5.50;99.90
32612;DHT22;19030;49.478;8.986;2023-02-01T08:04:18;5.50;99.90
32612;DHT22;19030;49.478;8.986;2023-02-01T08:06:19;5.50;99.90
32612;DHT22;19030;49.478;8.986;2023-02-01T08:08:20;5.60;99.90
32612;DHT22;19030;49.478;8.986;2023-02-01T08:10:21;5.60;99.90
32612;DHT22;19030;49.478;8.986;2023-02-01T08:12:21;5.60;99.90
32612;DHT22;19030;49.478;8.986;2023-02-01T08:14:22;5.70;99.90
32612;DHT22;19030;49.478;8.986;2023-02-01T08:16:23;5.70;99.90
32612;DHT22;19030;49.478;8.986;2023-02-01T08:18:24;5.70;99.90
32612;DHT22;19030;49.478;8.986;2023-02-01T08:20:25;5.80;99.90
32612;DHT22;19030;49.478;8.986;2023-02-01T08:22:32;5.90;99.90
32612;DHT22;19030;49.478;8.986;2023-02-01T08:24:35;5.90;99.90
32612;DHT22;19030;49.478;8.986;2023-02-01T08:26:38;6.00;99.90
32612;DHT22;19030;49.478;8.986;2023-02-01T08:28:39;6.00;99.90
32612;DHT22;19030;49.478;8.986;2023-02-01T08:30:40;6.00;99.90
32612;DHT22;19030;49.478;8.986;2023-02-01T08:32:42;6.00;99.90
32612;DHT22;19030;49.478;8.986;2023-02-01T08:34:43;6.10;99.90
32612;DHT22;19030;49.478;8.986;2023-02-01T08:36:43;6.20;99.90
32612;DHT22;19030;49.478;8.986;2023-02-01T08:38:44;6.10;99.90
32612;DHT22;19030;49.478;8.986;2023-02-01T08:40:44;6.10;99.90
32612;DHT22;19030;49.478;8.986;2023-02-01T08:42:46;6.10;99.90
32612;DHT22;19030;49.478;8.986;2023-02-01T08:44:52;6.10;99.90
32612;DHT22;19030;49.478;8.986;2023-02-01T08:46:53;6.10;99.90
32612;DHT22;19030;49.478;8.986;2023-02-01T08:48:53;6.10;99.90
32612;DHT22;19030;49.478;8.986;2023-02-01T08:50:54;6.10;99.90
32612;DHT22;19030;49.478;8.986;2023-02-01T08:52:55;6.10;99.90
32612;DHT22;19030;49.478;8.986;2023-02-01T08:54:55;6.20;99.90
32612;DHT22;19030;49.478;8.986;2023-02-01T08:56:56;6.20;99.90
32612;DHT22;19030;49.478;8.986;2023-02-01T08:58:56;6.20;99.90
32612;DHT22;19030;49.478;8.986;2023-02-01T09:00:57;6.20;99.90
32612;DHT22;19030;49.478;8.986;2023-02-01T09:03:02;6.20;99.90
32612;DHT22;19030;49.478;8.986;2023-02-01T09:05:03;6.20;99.90
32612;DHT22;19030;49.478;8.986;2023-02-01T09:07:04;6.20;99.90
32612;DHT22;19030;49.478;8.986;2023-02-01T09:09:05;6.20;99.90
32612;DHT22;19030;49.478;8.986;2023-02-01T09:11:09;6.20;99.90
32612;DHT22;19030;49.478;8.986;2023-02-01T09:13:10;6.20;99.90
32612;DHT22;19030;49.478;8.986;2023-02-01T09:15:11;6.20;99.90
32612;DHT22;19030;49.478;8.986;2023-02-01T09:17:12;6.10;99.90
32612;DHT22;19030;49.478;8.986;2023-02-01T09:19:14;6.10;99.90
32612;DHT22;19030;49.478;8.986;2023-02-01T09:21:14;6.00;99.90
32612;DHT22;19030;49.478;8.986;2023-02-01T09:23:15;6.00;99.90
32612;DHT22;19030;49.478;8.986;2023-02-01T09:25:16;5.90;99.90
32612;DHT22;19030;49.478;8.986;2023-02-01T09:27:16;5.90;99.90
32612;DHT22;19030;49.478;8.986;2023-02-01T09:29:17;5.90;99.90
32612;DHT22;19030;49.478;8.986;2023-02-01T09:31:18;6.00;99.90
32612;DHT22;19030;49.478;8.986;2023-02-01T09:33:19;6.00;99.90
32612;DHT22;19030;49.478;8.986;2023-02-01T09:35:21;6.00;99.90
32612;DHT22;19030;49.478;8.986;2023-02-01T09:37:22;6.10;99.90
32612;DHT22;19030;49.478;8.986;2023-02-01T09:39:22;6.10;99.90
32612;DHT22;19030;49.478;8.986;2023-02-01T09:41:35;6.10;99.90
32612;DHT22;19030;49.478;8.986;2023-02-01T09:44:06;6.20;99.90
32612;DHT22;19030;49.478;8.986;2023-02-01T09:46:27;6.20;99.90
32612;DHT22;19030;49.478;8.986;2023-02-01T09:48:32;6.40;99.90
32612;DHT22;19030;49.478;8.986;2023-02-01T09:50:38;7.40;99.90
32612;DHT22;19030;49.478;8.986;2023-02-01T09:52:59;8.40;99.90
32612;DHT22;19030;49.478;8.986;2023-02-01T09:55:18;9.40;99.90
32612;DHT22;19030;49.478;8.986;2023-02-01T09:57:24;11.50;99.90
32612;DHT22;19030;49.478;8.986;2023-02-01T10:01:33;11.10;99.90
32612;DHT22;19030;49.478;8.986;2023-02-01T10:03:35;10.30;99.90
32612;DHT22;19030;49.478;8.986;2023-02-01T10:06:06;9.60;99.90
32612;DHT22;19030;49.478;8.986;2023-02-01T10:10:44;8.20;99.90
32612;DHT22;19030;49.478;8.986;2023-02-01T10:12:55;7.80;99.90
32612;DHT22;19030;49.478;8.986;2023-02-01T10:22:09;6.90;99.90
32612;DHT22;19030;49.478;8.986;2023-02-01T10:24:41;6.80;99.90
32612;DHT22;19030;49.478;8.986;2023-02-01T10:26:45;6.80;99.90
32612;DHT22;19030;49.478;8.986;2023-02-01T10:28:50;6.70;99.90
32612;DHT22;19030;49.478;8.986;2023-02-01T10:30:56;6.70;99.90
32612;DHT22;19030;49.478;8.986;2023-02-01T10:33:26;6.70;99.90
32612;DHT22;19030;49.478;8.986;2023-02-01T10:35:31;6.70;99.90
32612;DHT22;19030;49.478;8.986;2023-02-01T10:37:34;6.60;99.90
32612;DHT22;19030;49.478;8.986;2023-02-01T10:39:35;6.60;99.90
32612;DHT22;19030;49.478;8.986;2023-02-01T10:41:39;6.50;99.90
32612;DHT22;19030;49.478;8.986;2023-02-01T10:43:39;6.50;99.90
32612;DHT22;19030;49.478;8.986;2023-02-01T10:45:41;6.40;99.90
32612;DHT22;19030;49.478;8.986;2023-02-01T10:47:42;6.50;99.90
32612;DHT22;19030;49.478;8.986;2023-02-01T10:49:50;6.40;99.90
32612;DHT22;19030;49.478;8.986;2023-02-01T10:52:02;6.40;99.90
32612;DHT22;19030;49.478;8.986;2023-02-01T10:54:33;6.30;99.90
32612;DHT22;19030;49.478;8.986;2023-02-01T10:56:37;6.30;99.90
32612;DHT22;19030;49.478;8.986;2023-02-01T10:58:46;6.30;99.90
32612;DHT22;19030;49.478;8.986;2023-02-01T11:00:52;6.30;99.90
32612;DHT22;19030;49.478;8.986;2023-02-01T11:02:54;6.40;99.90
32612;DHT22;19030;49.478;8.986;2023-02-01T11:05:12;6.40;99.90
32612;DHT22;19030;49.478;8.986;2023-02-01T11:07:22;6.40;99.90
32612;DHT22;19030;49.478;8.986;2023-02-01T11:09:25;6.40;99.90
32612;DHT22;19030;49.478;8.986;2023-02-01T11:11:26;6.40;99.90
32612;DHT22;19030;49.478;8.986;2023-02-01T11:13:31;6.40;99.90
32612;DHT22;19030;49.478;8.986;2023-02-01T11:15:36;6.50;99.90
32612;DHT22;19030;49.478;8.986;2023-02-01T11:17:40;6.50;99.90
32612;DHT22;19030;49.478;8.986;2023-02-01T11:19:45;6.50;99.90
32612;DHT22;19030;49.478;8.986;2023-02-01T11:21:54;6.50;99.90
32612;DHT22;19030;49.478;8.986;2023-02-01T11:23:55;6.50;99.90
32612;DHT22;19030;49.478;8.986;2023-02-01T11:26:09;6.50;99.90
32612;DHT22;19030;49.478;8.986;2023-02-01T11:28:10;6.40;99.90
32612;DHT22;19030;49.478;8.986;2023-02-01T11:30:17;6.40;99.90
32612;DHT22;19030;49.478;8.986;2023-02-01T11:32:22;6.50;99.90
32612;DHT22;19030;49.478;8.986;2023-02-01T11:34:26;6.50;99.90
32612;DHT22;19030;49.478;8.986;2023-02-01T11:36:31;6.70;99.90
32612;DHT22;19030;49.478;8.986;2023-02-01T11:38:34;6.70;99.90
32612;DHT22;19030;49.478;8.986;2023-02-01T11:40:37;6.70;99.90
32612;DHT22;19030;49.478;8.986;2023-02-01T11:43:15;6.70;99.90
32612;DHT22;19030;49.478;8.986;2023-02-01T11:45:25;6.70;99.90
32612;DHT22;19030;49.478;8.986;2023-02-01T11:47:39;6.60;99.90
32612;DHT22;19030;49.478;8.986;2023-02-01T11:49:40;6.60;99.90
32612;DHT22;19030;49.478;8.986;2023-02-01T11:52:00;6.60;99.90
32612;DHT22;19030;49.478;8.986;2023-02-01T11:54:15;6.60;99.90
32612;DHT22;19030;49.478;8.986;2023-02-01T11:56:35;6.60;99.90
32612;DHT22;19030;49.478;8.986;2023-02-01T12:01:21;6.60;99.90
32612;DHT22;19030;49.478;8.986;2023-02-01T12:06:11;6.50;99.90
32612;DHT22;19030;49.478;8.986;2023-02-01T12:08:30;6.50;99.90
32612;DHT22;19030;49.478;8.986;2023-02-01T12:10:53;6.50;99.90
32612;DHT22;19030;49.478;8.986;2023-02-01T12:13:20;6.50;99.90
32612;DHT22;19030;49.478;8.986;2023-02-01T12:15:43;6.50;99.90
32612;DHT22;19030;49.478;8.986;2023-02-01T12:23:33;6.70;99.90
32612;DHT22;19030;49.478;8.986;2023-02-01T12:28:33;6.90;99.90
32612;DHT22;19030;49.478;8.986;2023-02-01T12:31:01;6.90;99.90
32612;DHT22;19030;49.478;8.986;2023-02-01T12:35:43;6.80;99.90
32612;DHT22;19030;49.478;8.986;2023-02-01T12:42:32;6.70;99.90
32612;DHT22;19030;49.478;8.986;2023-02-01T12:44:47;6.60;99.90
32612;DHT22;19030;49.478;8.986;2023-02-01T12:46:53;6.60;99.90
32612;DHT22;19030;49.478;8.986;2023-02-01T12:51:23;6.50;99.90
32612;DHT22;19030;49.478;8.986;2023-02-01T12:55:36;6.40;99.90
32612;DHT22;19030;49.478;8.986;2023-02-01T12:57:40;6.40;99.90
32612;DHT22;19030;49.478;8.986;2023-02-01T12:59:56;6.40;99.90
32612;DHT22;19030;49.478;8.986;2023-02-01T13:02:10;6.40;99.90
32612;DHT22;19030;49.478;8.986;2023-02-01T13:04:33;6.30;99.90
32612;DHT22;19030;49.478;8.986;2023-02-01T13:11:27;6.30;99.90
32612;DHT22;19030;49.478;8.986;2023-02-01T13:13:48;6.40;99.90
32612;DHT22;19030;49.478;8.986;2023-02-01T13:16:02;6.30;99.90
32612;DHT22;19030;49.478;8.986;2023-02-01T13:18:10;6.30;99.90
32612;DHT22;19030;49.478;8.986;2023-02-01T13:20:30;6.30;99.90
32612;DHT22;19030;49.478;8.986;2023-02-01T13:22:39;6.40;99.90
32612;DHT22;19030;49.478;8.986;2023-02-01T13:26:54;6.30;99.90
32612;DHT22;19030;49.478;8.986;2023-02-01T13:29:05;6.30;99.90
32612;DHT22;19030;49.478;8.986;2023-02-01T13:33:26;6.30;99.90
32612;DHT22;19030;49.478;8.986;2023-02-01T13:42:01;6.20;99.90
32612;DHT22;19030;49.478;8.986;2023-02-01T13:44:19;6.30;99.90
32612;DHT22;19030;49.478;8.986;2023-02-01T13:46:23;6.30;99.90
32612;DHT22;19030;49.478;8.986;2023-02-01T13:49:15;6.30;99.90
32612;DHT22;19030;49.478;8.986;2023-02-01T13:50:58;6.30;99.90
32612;DHT22;19030;49.478;8.986;2023-02-01T13:57:38;6.10;99.90
32612;DHT22;19030;49.478;8.986;2023-02-01T14:01:40;6.00;99.90
32612;DHT22;19030;49.478;8.986;2023-02-01T14:03:46;6.00;99.90
32612;DHT22;19030;49.478;8.986;2023-02-01T14:05:57;6.00;99.90
32612;DHT22;19030;49.478;8.986;2023-02-01T14:12:48;6.00;99.90
32612;DHT22;19030;49.478;8.986;2023-02-01T14:14:50;6.10;99.90
32612;DHT22;19030;49.478;8.986;2023-02-01T14:18:59;6.20;99.90
32612;DHT22;19030;49.478;8.986;2023-02-01T14:23:18;6.00;99.90
32612;DHT22;19030;49.478;8.986;2023-02-01T14:25:19;6.00;99.90
32612;DHT22;19030;49.478;8.986;2023-02-01T14:27:29;6.00;99.90
32612;DHT22;19030;49.478;8.986;2023-02-01T14:29:35;6.00;99.90
32612;DHT22;19030;49.478;8.986;2023-02-01T14:32:03;5.90;99.90
32612;DHT22;19030;49.478;8.986;2023-02-01T14:34:15;5.90;99.90
32612;DHT22;19030;49.478;8.986;2023-02-01T14:36:16;5.80;99.90
32612;DHT22;19030;49.478;8.986;2023-02-01T14:38:20;5.80;99.90
32612;DHT22;19030;49.478;8.986;2023-02-01T14:40:26;5.90;99.90
32612;DHT22;19030;49.478;8.986;2023-02-01T14:42:38;6.00;99.90
32612;DHT22;19030;49.478;8.986;2023-02-01T14:44:39;6.10;99.90
32612;DHT22;19030;49.478;8.986;2023-02-01T14:47:07;6.10;99.90
32612;DHT22;19030;49.478;8.986;2023-02-01T14:49:09;6.20;99.90
32612;DHT22;19030;49.478;8.986;2023-02-01T14:51:14;6.20;99.90
32612;DHT22;19030;49.478;8.986;2023-02-01T14:53:22;6.20;99.90
32612;DHT22;19030;49.478;8.986;2023-02-01T14:55:51;6.20;99.90
32612;DHT22;19030;49.478;8.986;2023-02-01T14:57:56;6.20;99.90
32612;DHT22;19030;49.478;8.986;2023-02-01T15:00:07;6.30;99.90
32612;DHT22;19030;49.478;8.986;2023-02-01T15:02:21;6.30;99.90
32612;DHT22;19030;49.478;8.986;2023-02-01T15:04:25;6.30;99.90